createdAt,value
2023-02-12T00:00:03.989Z,19.2
2023-02-12T00:03:05.327Z,17
2023-02-12T00:06:07.299Z,16.6
2023-02-12T00:09:09.283Z,18.3
2023-02-12T00:12:11.246Z,17.8
2023-02-12T00:15:13.195Z,19.6
2023-02-12T00:18:15.151Z,17.9
2023-02-12T00:21:17.111Z,17
2023-02-12T00:24:19.095Z,17.4
2023-02-12T00:27:21.066Z,17.1
2023-02-12T00:30:23.050Z,18
2023-02-12T00:33:24.970Z,18.4
2023-02-12T00:36:26.915Z,16.5
2023-02-12T00:39:28.886Z,17.8
2023-02-12T00:42:30.845Z,19.8
2023-02-12T00:45:32.836Z,17.1
2023-02-12T00:48:34.775Z,19.1
2023-02-12T00:51:36.737Z,18
2023-02-12T00:54:38.703Z,20.5
2023-02-12T00:57:40.643Z,16.3
2023-02-12T01:00:42.597Z,16.1
2023-02-12T01:03:44.559Z,19.5
2023-02-12T01:06:46.531Z,18.7
2023-02-12T01:09:48.481Z,19.3
2023-02-12T01:12:50.452Z,19.5
2023-02-12T01:15:52.554Z,20.2
2023-02-12T01:18:55.897Z,18
2023-02-12T01:21:56.325Z,20.8
2023-02-12T01:24:58.298Z,17.6
2023-02-12T01:28:00.277Z,18.4
2023-02-12T01:31:02.264Z,16.8
2023-02-12T01:34:04.185Z,17.6
2023-02-12T01:37:06.126Z,15.2
2023-02-12T01:40:08.080Z,17.3
2023-02-12T01:43:10.043Z,17.4
2023-02-12T01:46:12.125Z,16.6
2023-02-12T01:49:14.007Z,16
2023-02-12T01:52:15.976Z,15.2
2023-02-12T01:55:17.921Z,16.3
2023-02-12T01:58:19.897Z,14.5
2023-02-12T02:01:21.921Z,18.4
2023-02-12T02:04:23.819Z,16.6
2023-02-12T02:07:25.771Z,16.4
2023-02-12T02:10:27.718Z,16.2
2023-02-12T02:13:29.691Z,16.1
2023-02-12T02:16:31.688Z,14.3
2023-02-12T02:19:33.603Z,16.8
2023-02-12T02:22:35.563Z,15.8
2023-02-12T02:25:37.530Z,17.5
2023-02-12T02:28:39.595Z,15.3
2023-02-12T02:31:41.529Z,15.5
2023-02-12T02:34:43.436Z,17.4
2023-02-12T02:37:45.397Z,16.4
2023-02-12T02:40:47.362Z,14.2
2023-02-12T02:43:49.338Z,15.9
2023-02-12T02:46:51.454Z,15.4
2023-02-12T02:49:53.258Z,17
2023-02-12T02:52:55.220Z,16.4
2023-02-12T02:55:57.433Z,18.7
2023-02-12T02:58:59.169Z,17.1
2023-02-12T03:02:01.138Z,15
2023-02-12T03:05:03.117Z,17.6
2023-02-12T03:08:05.059Z,18.2
2023-02-12T03:11:07.005Z,21
2023-02-12T03:14:08.995Z,17
2023-02-12T03:17:10.961Z,18.1
2023-02-12T03:20:12.920Z,15.5
2023-02-12T03:23:14.890Z,16.9
2023-02-12T03:26:16.822Z,15.4
2023-02-12T03:29:18.809Z,17.8
2023-02-12T03:32:20.781Z,21.3
2023-02-12T03:35:22.710Z,16.9
2023-02-12T03:38:24.649Z,16.4
2023-02-12T03:41:26.645Z,18.8
2023-02-12T03:44:28.607Z,15.5
2023-02-12T03:47:30.614Z,19.2
2023-02-12T03:50:32.534Z,22.5
2023-02-12T03:53:34.494Z,20.1
2023-02-12T03:56:36.739Z,21.8
2023-02-12T03:59:38.543Z,21.3
2023-02-12T04:02:40.450Z,21.3
2023-02-12T04:05:42.422Z,21.3
2023-02-12T04:08:44.376Z,18.2
2023-02-12T04:11:46.336Z,21.8
2023-02-12T04:14:48.295Z,22.6
2023-02-12T04:17:50.251Z,18
2023-02-12T04:20:52.194Z,17.6
2023-02-12T04:23:54.166Z,18.1
2023-02-12T04:26:56.120Z,18.8
2023-02-12T04:29:58.094Z,17
2023-02-12T04:33:00.059Z,16.8
2023-02-12T04:36:02.042Z,20.6
2023-02-12T04:39:03.972Z,16.4
2023-02-12T04:42:05.937Z,19.4
2023-02-12T04:45:07.889Z,18.2
2023-02-12T04:48:09.917Z,17
2023-02-12T04:51:11.815Z,17.2
2023-02-12T04:54:13.787Z,16
2023-02-12T04:57:15.747Z,21.4
2023-02-12T05:00:17.706Z,17.5
2023-02-12T05:03:19.681Z,21.4
2023-02-12T05:06:21.636Z,18.3
2023-02-12T05:09:23.583Z,18.4
2023-02-12T05:12:25.564Z,18
2023-02-12T05:15:27.555Z,20.2
2023-02-12T05:18:29.487Z,19.5
2023-02-12T05:21:31.459Z,19.5
2023-02-12T05:24:33.421Z,19.2
2023-02-12T05:27:35.388Z,17.8
2023-02-12T05:30:37.406Z,18.7
2023-02-12T05:33:39.300Z,18.3
2023-02-12T05:36:41.257Z,17.2
2023-02-12T05:39:43.232Z,17.3
2023-02-12T05:42:45.176Z,18.7
2023-02-12T05:45:47.153Z,18.1
2023-02-12T05:48:49.121Z,19.4
2023-02-12T05:51:51.084Z,19.7
2023-02-12T05:54:53.038Z,21
2023-02-12T05:57:54.983Z,20.4
2023-02-12T06:00:56.950Z,21.1
2023-02-12T06:03:58.984Z,21.4
2023-02-12T06:07:00.881Z,20.3
2023-02-12T06:10:02.840Z,20.5
2023-02-12T06:13:04.810Z,19
2023-02-12T06:16:07.015Z,19.1
2023-02-12T06:19:08.717Z,19.6
2023-02-12T06:22:10.666Z,18
2023-02-12T06:25:12.652Z,22.4
2023-02-12T06:28:14.652Z,21.8
2023-02-12T06:31:16.663Z,18.7
2023-02-12T06:34:18.539Z,20.7
2023-02-12T06:37:20.489Z,22.7
2023-02-12T06:40:22.496Z,19
2023-02-12T06:43:24.439Z,21.9
2023-02-12T06:46:26.459Z,20.4
2023-02-12T06:49:28.365Z,22.9
2023-02-12T06:52:30.338Z,23.4
2023-02-12T06:55:32.295Z,24.9
2023-02-12T06:58:34.259Z,20.1
2023-02-12T07:01:36.250Z,20.3
2023-02-12T07:04:38.208Z,19.7
2023-02-12T07:07:40.160Z,21.1
2023-02-12T07:10:42.113Z,19.9
2023-02-12T07:13:44.079Z,22.8
2023-02-12T07:16:46.100Z,20.3
2023-02-12T07:19:48.040Z,21.4
2023-02-12T07:22:49.984Z,22
2023-02-12T07:25:51.932Z,25.2
2023-02-12T07:28:53.906Z,21.2
2023-02-12T07:31:56.005Z,26.5
2023-02-12T07:34:57.826Z,28.8
2023-02-12T07:37:59.789Z,29.1
2023-02-12T07:41:01.758Z,25.2
2023-02-12T07:44:03.725Z,21.9
2023-02-12T07:47:05.688Z,22.5
2023-02-12T07:50:07.633Z,28
2023-02-12T07:53:09.598Z,22.9
2023-02-12T07:56:11.582Z,24.9
2023-02-12T07:59:13.550Z,23.1
2023-02-12T08:02:15.580Z,26.7
2023-02-12T08:05:17.443Z,28.1
2023-02-12T08:08:19.403Z,29.1
2023-02-12T08:11:21.371Z,25.9
2023-02-12T08:14:23.323Z,23.4
2023-02-12T08:17:25.303Z,24.6
2023-02-12T08:20:27.255Z,24.9
2023-02-12T08:23:29.211Z,27.8
2023-02-12T08:26:31.185Z,25
2023-02-12T08:29:33.144Z,26
2023-02-12T08:32:35.101Z,27
2023-02-12T08:35:37.087Z,26
2023-02-12T08:38:39.052Z,28
2023-02-12T08:41:41.014Z,25.1
2023-02-12T08:44:42.988Z,29.8
2023-02-12T08:47:44.957Z,30.7
2023-02-12T08:50:46.925Z,28.5
2023-02-12T08:53:48.866Z,27.6
2023-02-12T08:56:50.954Z,27.8
2023-02-12T08:59:52.796Z,28.1
2023-02-12T09:02:54.752Z,29
2023-02-12T09:05:56.976Z,30.1
2023-02-12T09:08:58.672Z,28.8
2023-02-12T09:12:03.408Z,31.6
2023-02-12T09:15:05.372Z,28.9
2023-02-12T09:18:07.346Z,27.9
2023-02-12T09:21:09.299Z,27.9
2023-02-12T09:24:11.267Z,27.1
2023-02-12T09:27:13.254Z,26.7
2023-02-12T09:30:15.196Z,26.3
2023-02-12T09:33:17.170Z,26.4
2023-02-12T09:36:19.144Z,27.2
2023-02-12T09:39:21.086Z,27.9
2023-02-12T09:42:23.062Z,29
2023-02-12T09:45:25.033Z,26.6
2023-02-12T09:48:26.997Z,28.6
2023-02-12T09:51:28.950Z,32.1
2023-02-12T09:54:30.896Z,31.5
2023-02-12T09:57:32.862Z,31.8
2023-02-12T10:00:34.831Z,33.3
2023-02-12T10:03:36.798Z,30.9
2023-02-12T10:06:38.772Z,30.6
2023-02-12T10:09:40.717Z,33.1
2023-02-12T10:12:42.687Z,31.7
2023-02-12T10:15:44.758Z,30.3
2023-02-12T10:18:46.647Z,30.4
2023-02-12T10:21:48.625Z,31.4
2023-02-12T10:24:50.570Z,28.2
2023-02-12T10:27:52.532Z,29.2
2023-02-12T10:30:54.645Z,32.2
2023-02-12T10:33:56.487Z,30.9
2023-02-12T10:36:58.481Z,28.9
2023-02-12T10:40:00.400Z,31.3
2023-02-12T10:43:02.384Z,29.2
2023-02-12T10:46:04.371Z,27.3
2023-02-12T10:49:06.301Z,31.4
2023-02-12T10:52:08.275Z,29.4
2023-02-12T10:55:10.238Z,29.4
2023-02-12T10:58:12.239Z,30.6
2023-02-12T11:01:14.205Z,29.4
2023-02-12T11:04:16.178Z,29.4
2023-02-12T11:07:18.137Z,28.1
2023-02-12T11:10:20.123Z,28.1
2023-02-12T11:13:22.082Z,30.6
2023-02-12T11:16:24.101Z,28.2
2023-02-12T11:19:26.005Z,28.7
2023-02-12T11:22:27.988Z,30.5
2023-02-12T11:25:29.992Z,27.2
2023-02-12T11:28:32.077Z,26.8
2023-02-12T11:31:33.970Z,24.9
2023-02-12T11:34:35.849Z,23.1
2023-02-12T11:37:38.062Z,25.1
2023-02-12T11:40:39.788Z,26.6
2023-02-12T11:43:41.794Z,27.4
2023-02-12T11:46:43.806Z,24.4
2023-02-12T11:49:45.713Z,25.4
2023-02-12T11:52:47.670Z,23.7
2023-02-12T11:55:49.647Z,25
2023-02-12T11:58:51.687Z,27
2023-02-12T12:01:53.590Z,22.6
2023-02-12T12:04:55.518Z,24.1
2023-02-12T12:07:57.459Z,23.9
2023-02-12T12:10:59.449Z,25.5
2023-02-12T12:14:01.383Z,23.8
2023-02-12T12:17:03.348Z,23.6
2023-02-12T12:20:05.310Z,24.2
2023-02-12T12:23:07.290Z,24.5
2023-02-12T12:26:09.323Z,23.7
2023-02-12T12:29:11.226Z,24.9
2023-02-12T12:32:13.194Z,25.1
2023-02-12T12:35:15.152Z,24.7
2023-02-12T12:38:17.118Z,25.3
2023-02-12T12:41:19.059Z,24.7
2023-02-12T12:44:21.029Z,25.1
2023-02-12T12:47:22.981Z,24.8
2023-02-12T12:50:24.974Z,23.3
2023-02-12T12:53:26.907Z,23.9
2023-02-12T12:56:28.900Z,21.3
2023-02-12T12:59:30.833Z,21.9
2023-02-12T13:02:32.943Z,25
2023-02-12T13:05:34.748Z,20.9
2023-02-12T13:08:36.739Z,21.5
2023-02-12T13:11:38.691Z,19.7
2023-02-12T13:14:40.645Z,20.1
2023-02-12T13:17:42.601Z,21.8
2023-02-12T13:20:44.584Z,21
2023-02-12T13:23:46.546Z,21.2
2023-02-12T13:26:48.551Z,21.2
2023-02-12T13:29:50.470Z,20.4
2023-02-12T13:32:52.473Z,19
2023-02-12T13:35:54.603Z,21.2
2023-02-12T13:38:56.378Z,21.8
2023-02-12T13:41:58.361Z,22.4
2023-02-12T13:45:00.319Z,21.2
2023-02-12T13:48:02.261Z,18.5
2023-02-12T13:51:06.736Z,20
2023-02-12T13:54:06.211Z,18
2023-02-12T13:57:08.166Z,15
2023-02-12T14:00:10.165Z,14.9
2023-02-12T14:03:12.112Z,12.6
2023-02-12T14:06:14.146Z,12.3
2023-02-12T14:09:16.128Z,12.7
2023-02-12T14:12:18.095Z,13.1
2023-02-12T14:15:20.056Z,13.3
2023-02-12T14:18:22.012Z,11.7
2023-02-12T14:21:23.957Z,11.1
2023-02-12T14:24:25.933Z,10.2
2023-02-12T14:27:27.893Z,9.4
2023-02-12T14:30:29.839Z,9.1
2023-02-12T14:33:31.797Z,11
2023-02-12T14:36:33.789Z,9.2
2023-02-12T14:39:35.714Z,10.7
2023-02-12T14:42:37.694Z,10.2
2023-02-12T14:45:39.665Z,11.9
2023-02-12T14:48:41.636Z,11.3
2023-02-12T14:51:43.591Z,11.2
2023-02-12T14:54:45.570Z,10.6
2023-02-12T14:57:47.529Z,11.6
2023-02-12T15:00:49.520Z,11.1
2023-02-12T15:03:51.631Z,11
2023-02-12T15:06:53.465Z,9.5
2023-02-12T15:09:55.600Z,8.7
2023-02-12T15:12:57.392Z,8
2023-02-12T15:15:59.730Z,8.9
2023-02-12T15:19:01.319Z,8.8
2023-02-12T15:22:03.282Z,8.4
2023-02-12T15:25:05.233Z,9.1
2023-02-12T15:28:07.223Z,11.6
2023-02-12T15:31:09.321Z,10.2
2023-02-12T15:34:11.117Z,9.5
2023-02-12T15:37:13.080Z,10.2
2023-02-12T15:40:15.056Z,10.8
2023-02-12T15:43:17.031Z,9
2023-02-12T15:46:19.009Z,8.4
2023-02-12T15:49:20.948Z,9.9
2023-02-12T15:52:22.922Z,10.6
2023-02-12T15:55:24.966Z,11.3
2023-02-12T15:58:26.929Z,10.9
2023-02-12T16:01:28.946Z,10.1
2023-02-12T16:04:30.879Z,12.2
2023-02-12T16:07:32.814Z,17.7
2023-02-12T16:10:34.804Z,12.4
2023-02-12T16:13:36.764Z,11.1
2023-02-12T16:16:38.814Z,10.4
2023-02-12T16:19:40.678Z,10.1
2023-02-12T16:22:42.633Z,12.2
2023-02-12T16:25:44.614Z,12.4
2023-02-12T16:28:46.561Z,11.4
2023-02-12T16:31:48.585Z,10.5
2023-02-12T16:34:50.477Z,9.8
2023-02-12T16:37:52.479Z,10.8
2023-02-12T16:40:54.409Z,12.3
2023-02-12T16:43:56.332Z,12
2023-02-12T16:46:58.326Z,11.1
2023-02-12T16:50:00.257Z,10.6
2023-02-12T16:53:02.243Z,10.2
2023-02-12T16:56:04.192Z,10.6
2023-02-12T16:59:06.145Z,10.2
2023-02-12T17:02:08.099Z,11.1
2023-02-12T17:05:10.060Z,11.4
2023-02-12T17:08:12.042Z,12.9
2023-02-12T17:11:13.993Z,13.4
2023-02-12T17:14:15.968Z,11.5
2023-02-12T17:17:17.928Z,12.2
2023-02-12T17:20:19.886Z,11.5
2023-02-12T17:23:21.844Z,12.3
2023-02-12T17:26:23.829Z,12.2
2023-02-12T17:29:25.770Z,11.7
2023-02-12T17:32:27.740Z,12.4
2023-02-12T17:35:29.675Z,11.6
2023-02-12T17:38:31.661Z,14.6
2023-02-12T17:41:33.645Z,11.7
2023-02-12T17:44:35.580Z,11.7
2023-02-12T17:47:37.526Z,12.7
2023-02-12T17:50:39.517Z,10.4
2023-02-12T17:53:41.496Z,10.5
2023-02-12T17:56:43.451Z,11
2023-02-12T17:59:45.412Z,11
2023-02-12T18:02:47.396Z,10.6
2023-02-12T18:05:49.347Z,10.5
2023-02-12T18:08:51.307Z,10.2
2023-02-12T18:11:53.302Z,11.2
2023-02-12T18:14:55.277Z,12.2
2023-02-12T18:17:57.238Z,12.2
2023-02-12T18:20:59.416Z,11.5
2023-02-12T18:24:01.156Z,10
2023-02-12T18:27:03.118Z,11.7
2023-02-12T18:30:05.062Z,12.1
2023-02-12T18:33:07.045Z,11.4
2023-02-12T18:36:09.280Z,10.6
2023-02-12T18:39:11.238Z,9.7
2023-02-12T18:42:13.218Z,9.3
2023-02-12T18:45:15.166Z,9.3
2023-02-12T18:48:17.118Z,8.5
2023-02-12T18:51:19.087Z,9.9
2023-02-12T18:54:21.032Z,8.6
2023-02-12T18:57:22.990Z,8
2023-02-12T19:00:24.956Z,9.2
2023-02-12T19:03:26.895Z,8.3
2023-02-12T19:06:28.874Z,9
2023-02-12T19:09:30.835Z,9
2023-02-12T19:12:32.794Z,8.9
2023-02-12T19:15:34.797Z,7.7
2023-02-12T19:18:36.732Z,8.8
2023-02-12T19:21:38.685Z,7.4
2023-02-12T19:24:46.469Z,7.7
2023-02-12T19:27:42.678Z,8.4
2023-02-12T19:30:44.617Z,7.4
2023-02-12T19:33:46.553Z,8.5
2023-02-12T19:36:48.530Z,7.8
2023-02-12T19:39:50.494Z,7.1
2023-02-12T19:42:52.521Z,8.3
2023-02-12T19:45:54.462Z,8.9
2023-02-12T19:48:56.465Z,7.4
2023-02-12T19:51:58.389Z,6.6
2023-02-12T19:55:00.377Z,5.9
2023-02-12T19:58:02.337Z,6.5
2023-02-12T20:01:04.373Z,7.3
2023-02-12T20:04:06.291Z,6.7
2023-02-12T20:07:08.260Z,7.2
2023-02-12T20:10:10.162Z,6.1
2023-02-12T20:13:12.153Z,6.1
2023-02-12T20:16:14.166Z,6.5
2023-02-12T20:19:16.071Z,6.6
2023-02-12T20:22:18.023Z,6.1
2023-02-12T20:25:19.981Z,5.4
2023-02-12T20:28:21.996Z,5.7
2023-02-12T20:31:24.000Z,7.1
2023-02-12T20:34:25.850Z,6.3
2023-02-12T20:37:27.805Z,7.5
2023-02-12T20:40:29.767Z,6.3
2023-02-12T20:43:31.748Z,7.4
2023-02-12T20:46:33.703Z,7.9
2023-02-12T20:49:35.663Z,7.3
2023-02-12T20:52:37.621Z,7.3
2023-02-12T20:55:39.609Z,7.5
2023-02-12T20:58:41.540Z,7
2023-02-12T21:01:43.529Z,7.1
2023-02-12T21:04:45.465Z,7
2023-02-12T21:07:47.430Z,6.8
2023-02-12T21:10:49.410Z,7.1
2023-02-12T21:13:54.022Z,8.3
2023-02-12T21:16:53.309Z,9.2
2023-02-12T21:19:55.258Z,8.4
2023-02-12T21:22:57.233Z,8.2
2023-02-12T21:25:59.176Z,9.3
2023-02-12T21:29:01.145Z,7.7
2023-02-12T21:32:03.248Z,8.7
2023-02-12T21:35:05.067Z,9.1
2023-02-12T21:38:07.045Z,8.2
2023-02-12T21:41:09.008Z,8.9
2023-02-12T21:44:10.981Z,8.3
2023-02-12T21:47:12.937Z,8.5
2023-02-12T21:50:14.943Z,7.5
2023-02-12T21:53:16.912Z,9.4
2023-02-12T21:56:18.847Z,8
2023-02-12T21:59:20.782Z,7.4
2023-02-12T22:02:22.817Z,8.6
2023-02-12T22:05:24.700Z,7.7
2023-02-12T22:08:26.674Z,7.6
2023-02-12T22:11:28.643Z,7.8
2023-02-12T22:14:30.635Z,8.5
2023-02-12T22:17:32.562Z,7.7
2023-02-12T22:20:34.519Z,7.6
2023-02-12T22:23:36.484Z,7.7
2023-02-12T22:26:38.456Z,7.1
2023-02-12T22:29:40.407Z,6.9
2023-02-12T22:32:42.434Z,7.2
2023-02-12T22:35:44.326Z,7.3
2023-02-12T22:38:46.303Z,6.3
2023-02-12T22:41:48.254Z,6.3
2023-02-12T22:44:50.236Z,6.3
2023-02-12T22:47:52.220Z,6.1
2023-02-12T22:50:54.197Z,6.2
2023-02-12T22:53:56.116Z,6.4
2023-02-12T22:56:58.065Z,6.1
2023-02-12T23:00:00.188Z,6.5
2023-02-12T23:03:02.015Z,6.1
2023-02-12T23:06:03.971Z,6.3
2023-02-12T23:09:05.936Z,5.5
2023-02-12T23:12:07.927Z,6.8
2023-02-12T23:15:09.875Z,6.1
2023-02-12T23:18:11.811Z,5.6
2023-02-12T23:21:13.782Z,6.5
2023-02-12T23:24:15.754Z,6.9
2023-02-12T23:27:17.716Z,6.8
2023-02-12T23:30:19.814Z,5.7
2023-02-12T23:33:21.615Z,6.7
2023-02-12T23:36:23.600Z,5.8
2023-02-12T23:39:25.595Z,6.2
2023-02-12T23:42:27.511Z,5.1
2023-02-12T23:45:29.472Z,6.6
2023-02-12T23:48:31.440Z,5.3
2023-02-12T23:51:33.382Z,5.6
2023-02-12T23:54:35.340Z,5.7
2023-02-12T23:57:37.313Z,5.5
